Dobrodošli na spletni strani vremenske postaje Senovo. Vse informacije so informativnega značaja, saj vremenska postaja ni del državne mreže meteoroloških postaj. AKTUALNIH OBVESTIL NI.


Posebna pozornost v zvezi z vremenskimi dogajanji ni potrebna.    Posebna pozornost v zvezi z vremenskimi dogajanji ni potrebna.

Pogled proti Armezu več informacij Pogled proti Armezu


Lisca več informacij Lisca


Radar strel več informacij blitzortung!


Radar padavin več informacij rain snow radar


Obiščite še:

Template documentation
and downloads

And another site



Weather Underground, zgodovina - Tekstovno

Dnevni povzetek za Januar 15, 2018 Enote:  Obe    Angleško   Metrično
« Predhodni Dan
Naslednji Dan »
Dnevni Tedenski Mesečni Letni Po meri
  Višja: Nižja: Povprečje:
Temperatura: TemperatureC °F /  -17.8 °C -1.1 °F /  -18.4 °C -0 °F /  -17.8 °C
Točka rosišča: DewpointC °F /  -17.8 °C -4.0 °F /  -20 °C -3.2 °F /  -19.6 °C
Vlažnost: Humidity % 72 % 79 %
Hitrost vetra: WindSpeedKMH mph /  0 km/h - 2.3 mph /  3.7 km/h
Sunki vetra: WindSpeedGustKMH mph /  0 km/h - -
Veter:- - SE
Zračni tlak: PressurehPa in /  0 hPa 1016.1 in /  34405.1 hPa -
Padavine: 0.0 in /  0 mm    
Historical Graphs
 
 
Tabelarni podarki za Januar 15, 2018
Čas Temperatura Točka rosišča Zračni tlak Veter Hitrost vetra Sunki vetra Vlažnost Intenziteta padavin (urna)
TemperatureC °F /  -17.8 °C DewpointC °F /  -17.8 °C PressurehPa in /  0 hPa Calm     Humidity % HourlyPrecipMM in /  0 mm
00:01 -0.5 °F /  -18.1 °C -2.7 °F /  -19.3 °C 1024.9 in /  34703.1 hPa ESE 4.8 mph /  7.7 km/h 7.9 mph /  12.7 km/h 85 % 0.0 in /  0 mm
00:22 -0.6 °F /  -18.1 °C -2.8 °F /  -19.3 °C 1023.9 in /  34669.3 hPa ESE 5.1 mph /  8.2 km/h 10.1 mph /  16.3 km/h 85 % 0.0 in /  0 mm
00:29 -0.6 °F /  -18.1 °C -2.8 °F /  -19.3 °C 1023.9 in /  34669.3 hPa ESE 5.6 mph /  9 km/h 7.9 mph /  12.7 km/h 85 % 0.0 in /  0 mm
00:37 -0.6 °F /  -18.1 °C -2.8 °F /  -19.3 °C 1023.9 in /  34669.3 hPa ESE 5.5 mph /  8.9 km/h 9.0 mph /  14.5 km/h 85 % 0.0 in /  0 mm
00:45 -0.7 °F /  -18.2 °C -2.9 °F /  -19.4 °C 1023.9 in /  34669.3 hPa ESE 5.5 mph /  8.9 km/h 6.9 mph /  11.1 km/h 85 % 0.0 in /  0 mm
00:52 -0.7 °F /  -18.2 °C -2.9 °F /  -19.4 °C 1023.9 in /  34669.3 hPa ESE 5.1 mph /  8.2 km/h 8.7 mph /  14 km/h 85 % 0.0 in /  0 mm
00:58 -0.7 °F /  -18.2 °C -2.9 °F /  -19.4 °C 1024.9 in /  34703.1 hPa ESE 4.2 mph /  6.8 km/h 8.7 mph /  14 km/h 85 % 0.0 in /  0 mm
01:08 -0.7 °F /  -18.2 °C -2.9 °F /  -19.4 °C 1024.9 in /  34703.1 hPa ESE 4.3 mph /  6.9 km/h 9.0 mph /  14.5 km/h 85 % 0.0 in /  0 mm
01:14 -0.8 °F /  -18.2 °C -3.0 °F /  -19.4 °C 1023.9 in /  34669.3 hPa ESE 4.2 mph /  6.8 km/h 9.0 mph /  14.5 km/h 85 % 0.0 in /  0 mm
01:19 -0.8 °F /  -18.2 °C -3.0 °F /  -19.4 °C 1023.9 in /  34669.3 hPa ESE 4.5 mph /  7.2 km/h 9.0 mph /  14.5 km/h 85 % 0.0 in /  0 mm
01:28 -0.8 °F /  -18.2 °C -3.0 °F /  -19.4 °C 1024.9 in /  34703.1 hPa ESE 5.0 mph /  8 km/h 7.9 mph /  12.7 km/h 85 % 0.0 in /  0 mm
01:41 -0.8 °F /  -18.2 °C -3.0 °F /  -19.4 °C 1024.9 in /  34703.1 hPa ESE 5.1 mph /  8.2 km/h 10.1 mph /  16.3 km/h 85 % 0.0 in /  0 mm
01:46 -0.8 °F /  -18.2 °C -3.0 °F /  -19.4 °C 1024.9 in /  34703.1 hPa SE 5.6 mph /  9 km/h 10.1 mph /  16.3 km/h 85 % 0.0 in /  0 mm
01:59 -0.9 °F /  -18.3 °C -3.1 °F /  -19.5 °C 1024.9 in /  34703.1 hPa ESE 5.6 mph /  9 km/h 9.3 mph /  15 km/h 85 % 0.0 in /  0 mm
02:14 -0.9 °F /  -18.3 °C -3.1 °F /  -19.5 °C 1024.9 in /  34703.1 hPa ESE 5.0 mph /  8 km/h 7.6 mph /  12.2 km/h 85 % 0.0 in /  0 mm
02:22 -0.9 °F /  -18.3 °C -3.1 °F /  -19.5 °C 1024.9 in /  34703.1 hPa SE 4.7 mph /  7.6 km/h 7.9 mph /  12.7 km/h 85 % 0.0 in /  0 mm
02:31 -0.9 °F /  -18.3 °C -3.1 °F /  -19.5 °C 1024.9 in /  34703.1 hPa ESE 4.5 mph /  7.2 km/h 7.9 mph /  12.7 km/h 85 % 0.0 in /  0 mm
02:40 -1.0 °F /  -18.3 °C -3.2 °F /  -19.6 °C 1024.9 in /  34703.1 hPa ESE 4.5 mph /  7.2 km/h 6.9 mph /  11.1 km/h 85 % 0.0 in /  0 mm
02:45 -1.0 °F /  -18.3 °C -3.2 °F /  -19.6 °C 1024.9 in /  34703.1 hPa ESE 3.7 mph /  6 km/h 6.4 mph /  10.3 km/h 85 % 0.0 in /  0 mm
02:54 -1.0 °F /  -18.3 °C -3.2 °F /  -19.6 °C 1024.9 in /  34703.1 hPa ESE 3.9 mph /  6.3 km/h 6.4 mph /  10.3 km/h 85 % 0.0 in /  0 mm
03:03 -1.0 °F /  -18.3 °C -3.2 °F /  -19.6 °C 1024.9 in /  34703.1 hPa ESE 5.1 mph /  8.2 km/h 9.3 mph /  15 km/h 85 % 0.0 in /  0 mm
03:29 -1.0 °F /  -18.3 °C -3.2 °F /  -19.6 °C 1023.9 in /  34669.3 hPa ESE 5.6 mph /  9 km/h 11.6 mph /  18.7 km/h 85 % 0.0 in /  0 mm
03:34 -1.0 °F /  -18.3 °C -3.2 °F /  -19.6 °C 1023.9 in /  34669.3 hPa ESE 6.4 mph /  10.3 km/h 11.6 mph /  18.7 km/h 85 % 0.0 in /  0 mm
03:40 -1.0 °F /  -18.3 °C -3.2 °F /  -19.6 °C 1023.9 in /  34669.3 hPa ESE 5.8 mph /  9.3 km/h 9.7 mph /  15.6 km/h 85 % 0.0 in /  0 mm
03:45 -1.0 °F /  -18.3 °C -3.2 °F /  -19.6 °C 1023.9 in /  34669.3 hPa SE 4.3 mph /  6.9 km/h 7.9 mph /  12.7 km/h 85 % 0.0 in /  0 mm
03:54 -1.0 °F /  -18.3 °C -3.2 °F /  -19.6 °C 1023.9 in /  34669.3 hPa SE 5.0 mph /  8 km/h 10.1 mph /  16.3 km/h 85 % 0.0 in /  0 mm
04:01 -1.0 °F /  -18.3 °C -3.2 °F /  -19.6 °C 1023.9 in /  34669.3 hPa ESE 3.7 mph /  6 km/h 6.4 mph /  10.3 km/h 85 % 0.0 in /  0 mm
04:06 -1.0 °F /  -18.3 °C -3.2 °F /  -19.6 °C 1023.9 in /  34669.3 hPa ESE 3.1 mph /  5 km/h 6.1 mph /  9.8 km/h 85 % 0.0 in /  0 mm
04:25 -1.0 °F /  -18.3 °C -3.2 °F /  -19.6 °C 1023.9 in /  34669.3 hPa ESE 2.4 mph /  3.9 km/h 5.5 mph /  8.9 km/h 85 % 0.0 in /  0 mm
04:31 -1.0 °F /  -18.3 °C -3.2 °F /  -19.6 °C 1023.9 in /  34669.3 hPa SE 3.4 mph /  5.5 km/h 6.9 mph /  11.1 km/h 85 % 0.0 in /  0 mm
04:38 -1.0 °F /  -18.3 °C -3.2 °F /  -19.6 °C 1023.9 in /  34669.3 hPa SSE 4.7 mph /  7.6 km/h 6.9 mph /  11.1 km/h 85 % 0.0 in /  0 mm
04:54 -1.0 °F /  -18.3 °C -3.2 °F /  -19.6 °C 1023.9 in /  34669.3 hPa SW 3.2 mph /  5.1 km/h 4.7 mph /  7.6 km/h 85 % 0.0 in /  0 mm
05:04 -1.0 °F /  -18.3 °C -3.2 °F /  -19.6 °C 1023.9 in /  34669.3 hPa SW 3.1 mph /  5 km/h 6.1 mph /  9.8 km/h 85 % 0.0 in /  0 mm
05:14 -1.1 °F /  -18.4 °C -3.3 °F /  -19.6 °C 1023.9 in /  34669.3 hPa WSW 3.7 mph /  6 km/h 5.8 mph /  9.3 km/h 85 % 0.0 in /  0 mm
05:40 -1.0 °F /  -18.3 °C -3.2 °F /  -19.6 °C 1023.9 in /  34669.3 hPa ESE 0.6 mph /  1 km/h 3.2 mph /  5.1 km/h 85 % 0.0 in /  0 mm
05:52 -1.0 °F /  -18.3 °C -3.2 °F /  -19.6 °C 1023.9 in /  34669.3 hPa SE 1.4 mph /  2.3 km/h 4.0 mph /  6.4 km/h 85 % 0.0 in /  0 mm
06:00 -1.0 °F /  -18.3 °C -3.2 °F /  -19.6 °C 1023.9 in /  34669.3 hPa SE 1.6 mph /  2.6 km/h 4.3 mph /  6.9 km/h 85 % 0.0 in /  0 mm
06:11 -1.0 °F /  -18.3 °C -3.2 °F /  -19.6 °C 1023.9 in /  34669.3 hPa SE 2.7 mph /  4.3 km/h 4.3 mph /  6.9 km/h 85 % 0.0 in /  0 mm
06:22 -1.0 °F /  -18.3 °C -3.2 °F /  -19.6 °C 1023.9 in /  34669.3 hPa SE 1.4 mph /  2.3 km/h 4.0 mph /  6.4 km/h 85 % 0.0 in /  0 mm
06:32 -0.9 °F /  -18.3 °C -3.3 °F /  -19.6 °C 1023.9 in /  34669.3 hPa SE 0.6 mph /  1 km/h 4.3 mph /  6.9 km/h 84 % 0.0 in /  0 mm
06:54 -0.9 °F /  -18.3 °C -3.3 °F /  -19.6 °C 1023.9 in /  34669.3 hPa SSW 0.5 mph /  0.8 km/h 3.2 mph /  5.1 km/h 84 % 0.0 in /  0 mm
07:04 -1.0 °F /  -18.3 °C -3.2 °F /  -19.6 °C 1023.9 in /  34669.3 hPa WSW 1.8 mph /  2.9 km/h 4.3 mph /  6.9 km/h 85 % 0.0 in /  0 mm
07:10 -1.0 °F /  -18.3 °C -3.2 °F /  -19.6 °C 1023.9 in /  34669.3 hPa WSW 2.7 mph /  4.3 km/h 4.3 mph /  6.9 km/h 85 % 0.0 in /  0 mm
07:15 -1.0 °F /  -18.3 °C -3.2 °F /  -19.6 °C 1023.9 in /  34669.3 hPa SW 1.0 mph /  1.6 km/h 3.2 mph /  5.1 km/h 85 % 0.0 in /  0 mm
07:34 -1.0 °F /  -18.3 °C -3.4 °F /  -19.7 °C 1023.9 in /  34669.3 hPa SE 1.8 mph /  2.9 km/h 5.5 mph /  8.9 km/h 84 % 0.0 in /  0 mm
07:46 -1.0 °F /  -18.3 °C -3.4 °F /  -19.7 °C 1023.9 in /  34669.3 hPa SE 3.4 mph /  5.5 km/h 5.5 mph /  8.9 km/h 84 % 0.0 in /  0 mm
07:54 -0.9 °F /  -18.3 °C -3.3 °F /  -19.6 °C 1023.9 in /  34669.3 hPa SE 3.4 mph /  5.5 km/h 5.8 mph /  9.3 km/h 84 % 0.0 in /  0 mm
08:04 -0.9 °F /  -18.3 °C -3.3 °F /  -19.6 °C 1024.9 in /  34703.1 hPa SSE 2.3 mph /  3.7 km/h 5.5 mph /  8.9 km/h 84 % 0.0 in /  0 mm
08:15 -0.9 °F /  -18.3 °C -3.4 °F /  -19.7 °C 1024.9 in /  34703.1 hPa SSE 1.8 mph /  2.9 km/h 5.0 mph /  8 km/h 83 % 0.0 in /  0 mm
08:21 -0.8 °F /  -18.2 °C -3.3 °F /  -19.6 °C 1024.9 in /  34703.1 hPa SSE 2.4 mph /  3.9 km/h 6.1 mph /  9.8 km/h 83 % 0.0 in /  0 mm
08:26 -0.8 °F /  -18.2 °C -3.3 °F /  -19.6 °C 1024.9 in /  34703.1 hPa South 2.3 mph /  3.7 km/h 5.8 mph /  9.3 km/h 83 % 0.0 in /  0 mm
08:47 -0.7 °F /  -18.2 °C -3.2 °F /  -19.6 °C 1024.9 in /  34703.1 hPa SW 2.6 mph /  4.2 km/h 4.0 mph /  6.4 km/h 83 % 0.0 in /  0 mm
08:53 -0.7 °F /  -18.2 °C -3.2 °F /  -19.6 °C 1024.9 in /  34703.1 hPa SW 1.4 mph /  2.3 km/h 3.5 mph /  5.6 km/h 83 % 0.0 in /  0 mm
08:58 -0.7 °F /  -18.2 °C -3.4 °F /  -19.7 °C 1024.9 in /  34703.1 hPa SW 0.2 mph /  0.3 km/h 2.1 mph /  3.4 km/h 82 % 0.0 in /  0 mm
09:12 -0.6 °F /  -18.1 °C -3.3 °F /  -19.6 °C 1024.9 in /  34703.1 hPa Calm     82 % 0.0 in /  0 mm
09:20 -0.6 °F /  -18.1 °C -3.3 °F /  -19.6 °C 1024.9 in /  34703.1 hPa Calm     82 % 0.0 in /  0 mm
09:28 -0.5 °F /  -18.1 °C -3.2 °F /  -19.6 °C 1024.9 in /  34703.1 hPa ENE 0.8 mph /  1.3 km/h 4.7 mph /  7.6 km/h 82 % 0.0 in /  0 mm
09:37 -0.5 °F /  -18.1 °C -3.3 °F /  -19.6 °C 1024.9 in /  34703.1 hPa ENE 2.1 mph /  3.4 km/h 4.7 mph /  7.6 km/h 81 % 0.0 in /  0 mm
09:42 -0.5 °F /  -18.1 °C -3.3 °F /  -19.6 °C 1024.9 in /  34703.1 hPa East 1.0 mph /  1.6 km/h 4.0 mph /  6.4 km/h 81 % 0.0 in /  0 mm
09:48 -0.4 °F /  -18 °C -3.3 °F /  -19.6 °C 1024.9 in /  34703.1 hPa ESE 1.9 mph /  3.1 km/h 4.0 mph /  6.4 km/h 81 % 0.0 in /  0 mm
10:01 -0.3 °F /  -17.9 °C -3.3 °F /  -19.6 °C 1024.9 in /  34703.1 hPa ENE 4.5 mph /  7.2 km/h 6.1 mph /  9.8 km/h 80 % 0.0 in /  0 mm
10:06 -0.3 °F /  -17.9 °C -3.3 °F /  -19.6 °C 1024.9 in /  34703.1 hPa ENE 4.7 mph /  7.6 km/h 6.1 mph /  9.8 km/h 80 % 0.0 in /  0 mm
10:16 0.0 °F /  -17.8 °C -3.1 °F /  -19.5 °C 1024.9 in /  34703.1 hPa East 2.1 mph /  3.4 km/h 5.0 mph /  8 km/h 80 % 0.0 in /  0 mm
10:24 0.1 °F /  -17.7 °C -2.9 °F /  -19.4 °C 1024.9 in /  34703.1 hPa East 2.9 mph /  4.7 km/h 5.0 mph /  8 km/h 80 % 0.0 in /  0 mm
10:29 0.2 °F /  -17.7 °C -2.8 °F /  -19.3 °C 1024.9 in /  34703.1 hPa ENE 2.7 mph /  4.3 km/h 5.0 mph /  8 km/h 80 % 0.0 in /  0 mm
10:35 0.3 °F /  -17.6 °C -2.7 °F /  -19.3 °C 1024.9 in /  34703.1 hPa East 2.7 mph /  4.3 km/h 5.0 mph /  8 km/h 80 % 0.0 in /  0 mm
10:40 0.4 °F /  -17.6 °C -2.7 °F /  -19.3 °C 1024.9 in /  34703.1 hPa ESE 2.1 mph /  3.4 km/h 4.0 mph /  6.4 km/h 80 % 0.0 in /  0 mm
10:57 0.5 °F /  -17.5 °C -2.7 °F /  -19.3 °C 1024.9 in /  34703.1 hPa NE 1.4 mph /  2.3 km/h 4.0 mph /  6.4 km/h 79 % 0.0 in /  0 mm
11:04 0.5 °F /  -17.5 °C -2.7 °F /  -19.3 °C 1024.9 in /  34703.1 hPa NE 1.1 mph /  1.8 km/h 4.7 mph /  7.6 km/h 79 % 0.0 in /  0 mm
11:12 0.5 °F /  -17.5 °C -2.7 °F /  -19.3 °C 1024.9 in /  34703.1 hPa NE 1.3 mph /  2.1 km/h 4.3 mph /  6.9 km/h 79 % 0.0 in /  0 mm
11:18 0.6 °F /  -17.4 °C -2.8 °F /  -19.3 °C 1024.9 in /  34703.1 hPa NE 0.5 mph /  0.8 km/h 4.0 mph /  6.4 km/h 78 % 0.0 in /  0 mm
11:25 0.6 °F /  -17.4 °C -2.8 °F /  -19.3 °C 1024.9 in /  34703.1 hPa NNE 0.8 mph /  1.3 km/h 4.0 mph /  6.4 km/h 78 % 0.0 in /  0 mm
11:41 0.8 °F /  -17.3 °C -2.6 °F /  -19.2 °C 1023.9 in /  34669.3 hPa SSE 2.4 mph /  3.9 km/h 6.1 mph /  9.8 km/h 78 % 0.0 in /  0 mm
11:50 1.0 °F /  -17.2 °C -2.6 °F /  -19.2 °C 1023.9 in /  34669.3 hPa SSE 1.8 mph /  2.9 km/h 4.3 mph /  6.9 km/h 77 % 0.0 in /  0 mm
11:55 1.0 °F /  -17.2 °C -2.6 °F /  -19.2 °C 1023.9 in /  34669.3 hPa SSW 1.4 mph /  2.3 km/h 5.5 mph /  8.9 km/h 77 % 0.0 in /  0 mm
12:01 1.0 °F /  -17.2 °C -2.6 °F /  -19.2 °C 1023.9 in /  34669.3 hPa SW 1.8 mph /  2.9 km/h 4.0 mph /  6.4 km/h 77 % 0.0 in /  0 mm
12:07 1.1 °F /  -17.2 °C -2.5 °F /  -19.2 °C 1023.9 in /  34669.3 hPa SSW 1.6 mph /  2.6 km/h 4.0 mph /  6.4 km/h 77 % 0.0 in /  0 mm
12:17 1.2 °F /  -17.1 °C -2.6 °F /  -19.2 °C 1023.9 in /  34669.3 hPa ENE 1.4 mph /  2.3 km/h 5.0 mph /  8 km/h 76 % 0.0 in /  0 mm
12:22 1.3 °F /  -17.1 °C -2.4 °F /  -19.1 °C 1023.9 in /  34669.3 hPa East 2.4 mph /  3.9 km/h 6.1 mph /  9.8 km/h 76 % 0.0 in /  0 mm
12:28 1.3 °F /  -17.1 °C -2.4 °F /  -19.1 °C 1023.9 in /  34669.3 hPa South 2.7 mph /  4.3 km/h 6.1 mph /  9.8 km/h 76 % 0.0 in /  0 mm
12:33 1.3 °F /  -17.1 °C -2.4 °F /  -19.1 °C 1023.9 in /  34669.3 hPa SSW 2.3 mph /  3.7 km/h 5.0 mph /  8 km/h 76 % 0.0 in /  0 mm
12:43 1.3 °F /  -17.1 °C -2.7 °F /  -19.3 °C 1022.9 in /  34635.4 hPa SSW 1.0 mph /  1.6 km/h 5.5 mph /  8.9 km/h 75 % 0.0 in /  0 mm
12:48 1.3 °F /  -17.1 °C -2.7 °F /  -19.3 °C 1022.9 in /  34635.4 hPa South 3.2 mph /  5.1 km/h 9.0 mph /  14.5 km/h 75 % 0.0 in /  0 mm
12:53 1.4 °F /  -17 °C -2.6 °F /  -19.2 °C 1022.9 in /  34635.4 hPa SSE 3.7 mph /  6 km/h 9.0 mph /  14.5 km/h 75 % 0.0 in /  0 mm
12:59 1.4 °F /  -17 °C -2.6 °F /  -19.2 °C 1021.9 in /  34601.5 hPa SSE 3.4 mph /  5.5 km/h 6.4 mph /  10.3 km/h 75 % 0.0 in /  0 mm
13:07 1.4 °F /  -17 °C -2.7 °F /  -19.3 °C 1021.9 in /  34601.5 hPa South 3.9 mph /  6.3 km/h 7.9 mph /  12.7 km/h 74 % 0.0 in /  0 mm
13:13 1.4 °F /  -17 °C -2.7 °F /  -19.3 °C 1021.9 in /  34601.5 hPa SSW 3.2 mph /  5.1 km/h 5.5 mph /  8.9 km/h 74 % 0.0 in /  0 mm
13:19 1.4 °F /  -17 °C -2.7 °F /  -19.3 °C 1021.9 in /  34601.5 hPa SSW 3.4 mph /  5.5 km/h 5.8 mph /  9.3 km/h 74 % 0.0 in /  0 mm
13:24 1.3 °F /  -17.1 °C -2.8 °F /  -19.3 °C 1021.9 in /  34601.5 hPa SSW 4.0 mph /  6.4 km/h 6.1 mph /  9.8 km/h 74 % 0.0 in /  0 mm
13:32 1.2 °F /  -17.1 °C -3.1 °F /  -19.5 °C 1022.9 in /  34635.4 hPa South 2.9 mph /  4.7 km/h 7.9 mph /  12.7 km/h 73 % 0.0 in /  0 mm
13:37 1.1 °F /  -17.2 °C -3.2 °F /  -19.6 °C 1022.9 in /  34635.4 hPa SSW 2.1 mph /  3.4 km/h 7.9 mph /  12.7 km/h 73 % 0.0 in /  0 mm
13:51 1.1 °F /  -17.2 °C -3.2 °F /  -19.6 °C 1022.9 in /  34635.4 hPa SE 3.5 mph /  5.6 km/h 6.1 mph /  9.8 km/h 73 % 0.0 in /  0 mm
14:02 1.1 °F /  -17.2 °C -3.2 °F /  -19.6 °C 1021.9 in /  34601.5 hPa ESE 1.4 mph /  2.3 km/h 5.0 mph /  8 km/h 73 % 0.0 in /  0 mm
14:08 1.1 °F /  -17.2 °C -3.2 °F /  -19.6 °C 1021.9 in /  34601.5 hPa SSE 1.9 mph /  3.1 km/h 5.8 mph /  9.3 km/h 73 % 0.0 in /  0 mm
14:18 1.1 °F /  -17.2 °C -3.2 °F /  -19.6 °C 1021.9 in /  34601.5 hPa SE 3.5 mph /  5.6 km/h 6.9 mph /  11.1 km/h 73 % 0.0 in /  0 mm
14:24 1.1 °F /  -17.2 °C -3.2 °F /  -19.6 °C 1021.9 in /  34601.5 hPa SSE 2.9 mph /  4.7 km/h 5.5 mph /  8.9 km/h 73 % 0.0 in /  0 mm
14:35 1.0 °F /  -17.2 °C -3.5 °F /  -19.7 °C 1021.9 in /  34601.5 hPa SSE 4.5 mph /  7.2 km/h 6.9 mph /  11.1 km/h 72 % 0.0 in /  0 mm
14:42 1.0 °F /  -17.2 °C -3.5 °F /  -19.7 °C 1021.9 in /  34601.5 hPa SSE 3.7 mph /  6 km/h 6.9 mph /  11.1 km/h 72 % 0.0 in /  0 mm
14:48 1.0 °F /  -17.2 °C -3.5 °F /  -19.7 °C 1021.9 in /  34601.5 hPa SSW 3.5 mph /  5.6 km/h 6.1 mph /  9.8 km/h 72 % 0.0 in /  0 mm
15:04 0.8 °F /  -17.3 °C -3.5 °F /  -19.7 °C 1021.9 in /  34601.5 hPa SW 3.5 mph /  5.6 km/h 9.0 mph /  14.5 km/h 73 % 0.0 in /  0 mm
15:16 0.8 °F /  -17.3 °C -3.5 °F /  -19.7 °C 1020.9 in /  34567.7 hPa South 2.9 mph /  4.7 km/h 4.7 mph /  7.6 km/h 73 % 0.0 in /  0 mm
15:23 0.8 °F /  -17.3 °C -3.5 °F /  -19.7 °C 1020.9 in /  34567.7 hPa South 2.1 mph /  3.4 km/h 4.7 mph /  7.6 km/h 73 % 0.0 in /  0 mm
15:29 0.8 °F /  -17.3 °C -3.5 °F /  -19.7 °C 1020.9 in /  34567.7 hPa SSW 2.1 mph /  3.4 km/h 5.0 mph /  8 km/h 73 % 0.0 in /  0 mm
15:35 0.7 °F /  -17.4 °C -3.6 °F /  -19.8 °C 1020.9 in /  34567.7 hPa South 2.6 mph /  4.2 km/h 5.0 mph /  8 km/h 73 % 0.0 in /  0 mm
15:40 0.7 °F /  -17.4 °C -3.6 °F /  -19.8 °C 1020.9 in /  34567.7 hPa SE 3.2 mph /  5.1 km/h 6.4 mph /  10.3 km/h 73 % 0.0 in /  0 mm
15:48 0.7 °F /  -17.4 °C -3.6 °F /  -19.8 °C 1020.9 in /  34567.7 hPa SE 3.5 mph /  5.6 km/h 6.4 mph /  10.3 km/h 73 % 0.0 in /  0 mm
15:55 0.6 °F /  -17.4 °C -3.7 °F /  -19.8 °C 1020.9 in /  34567.7 hPa SE 3.2 mph /  5.1 km/h 6.1 mph /  9.8 km/h 73 % 0.0 in /  0 mm
16:08 0.6 °F /  -17.4 °C -3.7 °F /  -19.8 °C 1020.9 in /  34567.7 hPa SE 3.7 mph /  6 km/h 5.5 mph /  8.9 km/h 73 % 0.0 in /  0 mm
16:18 0.6 °F /  -17.4 °C -3.5 °F /  -19.7 °C 1020.9 in /  34567.7 hPa SE 2.3 mph /  3.7 km/h 6.4 mph /  10.3 km/h 74 % 0.0 in /  0 mm
16:28 0.5 °F /  -17.5 °C -3.6 °F /  -19.8 °C 1019.9 in /  34533.8 hPa SE 0.8 mph /  1.3 km/h 4.0 mph /  6.4 km/h 74 % 0.0 in /  0 mm
16:41 0.4 °F /  -17.6 °C -3.7 °F /  -19.8 °C 1020.9 in /  34567.7 hPa SSE 1.3 mph /  2.1 km/h 4.7 mph /  7.6 km/h 74 % 0.0 in /  0 mm
16:49 0.4 °F /  -17.6 °C -3.7 °F /  -19.8 °C 1020.9 in /  34567.7 hPa SE 1.6 mph /  2.6 km/h 5.5 mph /  8.9 km/h 74 % 0.0 in /  0 mm
17:05 0.3 °F /  -17.6 °C -3.8 °F /  -19.9 °C 1020.9 in /  34567.7 hPa ESE 1.3 mph /  2.1 km/h 5.0 mph /  8 km/h 74 % 0.0 in /  0 mm
17:14 0.3 °F /  -17.6 °C -3.8 °F /  -19.9 °C 1020.9 in /  34567.7 hPa SSE 0.6 mph /  1 km/h 4.0 mph /  6.4 km/h 74 % 0.0 in /  0 mm
17:21 0.3 °F /  -17.6 °C -3.8 °F /  -19.9 °C 1020.9 in /  34567.7 hPa SE 2.7 mph /  4.3 km/h 6.1 mph /  9.8 km/h 74 % 0.0 in /  0 mm
17:26 0.3 °F /  -17.6 °C -3.8 °F /  -19.9 °C 1020.9 in /  34567.7 hPa SE 1.8 mph /  2.9 km/h 6.1 mph /  9.8 km/h 74 % 0.0 in /  0 mm
17:45 0.2 °F /  -17.7 °C -3.9 °F /  -19.9 °C 1020.9 in /  34567.7 hPa SSE 1.4 mph /  2.3 km/h 4.7 mph /  7.6 km/h 74 % 0.0 in /  0 mm
17:52 0.1 °F /  -17.7 °C -4.0 °F /  -20 °C 1020.9 in /  34567.7 hPa SSE 0.2 mph /  0.3 km/h 2.1 mph /  3.4 km/h 74 % 0.0 in /  0 mm
17:57 0.1 °F /  -17.7 °C -4.0 °F /  -20 °C 1020.9 in /  34567.7 hPa SSE 0.2 mph /  0.3 km/h 2.6 mph /  4.2 km/h 74 % 0.0 in /  0 mm
18:10 0.1 °F /  -17.7 °C -4.0 °F /  -20 °C 1020.9 in /  34567.7 hPa South 0.8 mph /  1.3 km/h 4.0 mph /  6.4 km/h 74 % 0.0 in /  0 mm
18:16 0.1 °F /  -17.7 °C -4.0 °F /  -20 °C 1020.9 in /  34567.7 hPa SSW 1.1 mph /  1.8 km/h 4.0 mph /  6.4 km/h 74 % 0.0 in /  0 mm
18:35 0.1 °F /  -17.7 °C -3.8 °F /  -19.9 °C 1019.9 in /  34533.8 hPa West 0.2 mph /  0.3 km/h 2.6 mph /  4.2 km/h 75 % 0.0 in /  0 mm
18:40 0.1 °F /  -17.7 °C -3.8 °F /  -19.9 °C 1019.9 in /  34533.8 hPa SW 0.2 mph /  0.3 km/h 1.8 mph /  2.9 km/h 75 % 0.0 in /  0 mm
18:48 0.1 °F /  -17.7 °C -3.8 °F /  -19.9 °C 1019.9 in /  34533.8 hPa Calm     75 % 0.0 in /  0 mm
18:57 0.0 °F /  -17.8 °C -3.9 °F /  -19.9 °C 1019.9 in /  34533.8 hPa Calm   2.6 mph /  4.2 km/h 75 % 0.0 in /  0 mm
19:14 0.1 °F /  -17.7 °C -3.8 °F /  -19.9 °C 1018.8 in /  34496.6 hPa SW 0.2 mph /  0.3 km/h 2.6 mph /  4.2 km/h 75 % 0.0 in /  0 mm
19:19 0.1 °F /  -17.7 °C -3.8 °F /  -19.9 °C 1018.8 in /  34496.6 hPa South 0.2 mph /  0.3 km/h 5.0 mph /  8 km/h 75 % 0.0 in /  0 mm
19:31 0.1 °F /  -17.7 °C -3.6 °F /  -19.8 °C 1018.8 in /  34496.6 hPa South 0.3 mph /  0.5 km/h 2.6 mph /  4.2 km/h 76 % 0.0 in /  0 mm
19:48 0.1 °F /  -17.7 °C -3.6 °F /  -19.8 °C 1018.8 in /  34496.6 hPa East 0.2 mph /  0.3 km/h 3.5 mph /  5.6 km/h 76 % 0.0 in /  0 mm
19:55 0.1 °F /  -17.7 °C -3.6 °F /  -19.8 °C 1018.8 in /  34496.6 hPa SE 1.3 mph /  2.1 km/h 4.3 mph /  6.9 km/h 76 % 0.0 in /  0 mm
20:01 0.1 °F /  -17.7 °C -3.6 °F /  -19.8 °C 1018.2 in /  34476.3 hPa SW 1.3 mph /  2.1 km/h 4.3 mph /  6.9 km/h 76 % 0.0 in /  0 mm
20:10 0.1 °F /  -17.7 °C -3.6 °F /  -19.8 °C 1018.2 in /  34476.3 hPa WSW 1.1 mph /  1.8 km/h 4.3 mph /  6.9 km/h 76 % 0.0 in /  0 mm
20:37 0.1 °F /  -17.7 °C -3.4 °F /  -19.7 °C 1018.2 in /  34476.3 hPa Calm     77 % 0.0 in /  0 mm
20:42 0.1 °F /  -17.7 °C -3.4 °F /  -19.7 °C 1018.8 in /  34496.6 hPa Calm     77 % 0.0 in /  0 mm
21:06 0.0 °F /  -17.8 °C -3.6 °F /  -19.8 °C 1018.8 in /  34496.6 hPa Calm     77 % 0.0 in /  0 mm
21:11 0.1 °F /  -17.7 °C -3.4 °F /  -19.7 °C 1018.8 in /  34496.6 hPa Calm     77 % 0.0 in /  0 mm
21:16 0.0 °F /  -17.8 °C -3.4 °F /  -19.7 °C 1018.8 in /  34496.6 hPa Calm     78 % 0.0 in /  0 mm
21:24 0.0 °F /  -17.8 °C -3.4 °F /  -19.7 °C 1018.8 in /  34496.6 hPa Calm     78 % 0.0 in /  0 mm
21:29 0.0 °F /  -17.8 °C -3.4 °F /  -19.7 °C 1018.2 in /  34476.3 hPa Calm     78 % 0.0 in /  0 mm
21:46 0.1 °F /  -17.7 °C -3.3 °F /  -19.6 °C 1018.2 in /  34476.3 hPa NE 0.3 mph /  0.5 km/h 4.0 mph /  6.4 km/h 78 % 0.0 in /  0 mm
21:47 0.1 °F /  -17.7 °C -3.3 °F /  -19.6 °C 1018.2 in /  34476.3 hPa NE 0.5 mph /  0.8 km/h 4.0 mph /  6.4 km/h 78 % 0.0 in /  0 mm
21:48 0.1 °F /  -17.7 °C -3.3 °F /  -19.6 °C 1018.2 in /  34476.3 hPa NE 0.6 mph /  1 km/h 4.0 mph /  6.4 km/h 78 % 0.0 in /  0 mm
21:49 0.1 °F /  -17.7 °C -3.3 °F /  -19.6 °C 1018.2 in /  34476.3 hPa NE 0.6 mph /  1 km/h 4.0 mph /  6.4 km/h 78 % 0.0 in /  0 mm
21:50 0.1 °F /  -17.7 °C -3.3 °F /  -19.6 °C 1018.2 in /  34476.3 hPa NE 0.6 mph /  1 km/h 4.0 mph /  6.4 km/h 78 % 0.0 in /  0 mm
21:51 0.1 °F /  -17.7 °C -3.3 °F /  -19.6 °C 1018.2 in /  34476.3 hPa NE 0.6 mph /  1 km/h 4.0 mph /  6.4 km/h 78 % 0.0 in /  0 mm
21:52 0.1 °F /  -17.7 °C -3.3 °F /  -19.6 °C 1018.2 in /  34476.3 hPa NE 0.6 mph /  1 km/h 3.5 mph /  5.6 km/h 78 % 0.0 in /  0 mm
21:53 0.1 °F /  -17.7 °C -3.3 °F /  -19.6 °C 1018.2 in /  34476.3 hPa NE 0.5 mph /  0.8 km/h 3.5 mph /  5.6 km/h 78 % 0.0 in /  0 mm
22:02 0.1 °F /  -17.7 °C -3.3 °F /  -19.6 °C 1016.8 in /  34428.8 hPa Calm     78 % 0.0 in /  0 mm
22:06 0.1 °F /  -17.7 °C -3.3 °F /  -19.6 °C 1016.8 in /  34428.8 hPa Calm   3.2 mph /  5.1 km/h 78 % 0.0 in /  0 mm
22:13 0.1 °F /  -17.7 °C -3.3 °F /  -19.6 °C 1016.1 in /  34405.1 hPa ENE 1.8 mph /  2.9 km/h 4.3 mph /  6.9 km/h 78 % 0.0 in /  0 mm
22:17 0.1 °F /  -17.7 °C -3.3 °F /  -19.6 °C 1016.1 in /  34405.1 hPa ENE 1.6 mph /  2.6 km/h 4.3 mph /  6.9 km/h 78 % 0.0 in /  0 mm
22:26 0.1 °F /  -17.7 °C -3.3 °F /  -19.6 °C 1016.8 in /  34428.8 hPa West 1.9 mph /  3.1 km/h 6.1 mph /  9.8 km/h 78 % 0.0 in /  0 mm
22:58 0.1 °F /  -17.7 °C -3.1 °F /  -19.5 °C 1018.2 in /  34476.3 hPa WSW 1.1 mph /  1.8 km/h 5.0 mph /  8 km/h 79 % 0.0 in /  0 mm
23:19 0.1 °F /  -17.7 °C -3.1 °F /  -19.5 °C 1016.8 in /  34428.8 hPa WSW 1.6 mph /  2.6 km/h 4.3 mph /  6.9 km/h 79 % 0.0 in /  0 mm
23:26 0.1 °F /  -17.7 °C -3.1 °F /  -19.5 °C 1016.8 in /  34428.8 hPa Calm     79 % 0.0 in /  0 mm
23:44 0.0 °F /  -17.8 °C -3.1 °F /  -19.5 °C 1016.1 in /  34405.1 hPa Calm     80 % 0.0 in /  0 mm
Vremenska postaja Senovo
Podatki zbrani iz Weather Underground - 2.25 mb

Script developed by  Jim McMurry - jmcmurry@mwt.net Adapted for the template by  Wim van der Kuil - Leuven-Template.eu

Vremenski podatki so objavljeni na:

European Weather Network

WeatherCloud

Weather Underground

AWEKAS

HAMweather, WeatherForYou, PWS Weather

MapView

Geostik

Slovenia weather network

Oprema, ki se uporablja:

Vremenski program
Cumulus

Vremenski server
Asus

Cumulus

Asus